Time;durP1;ratioP1;P1;durP2;ratioP2;P2;SDS_P1;SDS_P2;PMS_P1;PMS_P2;Temp;Humidity;BMP_temperature;BMP_pressure;BME280_temperature;BME280_humidity;BME280_pressure;Samples;Min_cycle;Max_cycle;Signal;HPM_P1;HPM_P2
2022/02/02 00:00:48;;;;;;;1.60;1.15;;;;;;;6.15;67.78;94920.38;5050782;28;20028;-69
2022/02/02 00:03:16;;;;;;;2.00;1.50;;;;;;;6.41;66.18;94912.97;5033839;28;20017;-69
2022/02/02 00:08:22;;;;;;;1.10;1.00;;;;;;;5.84;67.14;94918.03;5051692;28;20054;-69
2022/02/02 00:14:16;;;;;;;0.80;0.80;;;;;;;6.01;67.28;94930.03;5051329;28;20086;-69
2022/02/02 00:18:59;;;;;;;2.50;0.88;;;;;;;6.27;66.36;94949.81;5050878;28;20036;-69
2022/02/02 00:23:55;;;;;;;2.63;1.17;;;;;;;5.78;68.93;94958.69;5051159;28;20082;-69
2022/02/02 00:26:27;;;;;;;1.15;1.15;;;;;;;6.66;66.54;94944.34;5033265;28;20029;-69
2022/02/02 00:28:57;;;;;;;1.75;0.90;;;;;;;6.06;68.12;94967.72;5050667;28;20060;-69
2022/02/02 00:31:29;;;;;;;2.47;1.40;;;;;;;5.81;69.39;94939.69;5050752;28;20489;-70
2022/02/02 00:34:00;;;;;;;1.52;1.23;;;;;;;6.10;67.75;94937.06;5050865;28;20021;-69
2022/02/02 00:36:33;;;;;;;5.90;1.27;;;;;;;5.70;68.54;94968.03;5050326;28;20559;-70
2022/02/02 00:38:58;;;;;;;1.63;1.13;;;;;;;5.92;69.32;94975.50;5032700;28;20029;-70
2022/02/02 00:41:24;;;;;;;2.83;1.20;;;;;;;5.28;71.20;94973.09;5050507;28;20163;-70
2022/02/02 00:43:55;;;;;;;2.17;1.77;;;;;;;5.67;70.84;94994.16;5050516;28;20080;-70
2022/02/02 00:46:24;;;;;;;2.95;1.45;;;;;;;5.71;71.83;94979.38;5051161;28;20058;-70
2022/02/02 00:48:52;;;;;;;4.30;1.60;;;;;;;5.07;72.87;94951.34;5050682;28;20025;-70
2022/02/02 00:51:23;;;;;;;3.92;3.03;;;;;;;5.50;72.75;94936.53;5040291;28;20060;-70
2022/02/02 00:53:48;;;;;;;3.30;2.05;;;;;;;5.35;73.34;94955.91;5050473;28;20032;-70
2022/02/02 00:56:14;;;;;;;6.65;3.67;;;;;;;5.71;72.43;94952.97;5050639;28;20397;-69
2022/02/02 00:58:39;;;;;;;3.83;2.25;;;;;;;5.54;72.42;94956.03;5050289;28;20021;-69
2022/02/02 01:01:05;;;;;;;3.63;1.75;;;;;;;5.35;73.35;94949.84;5050351;28;20029;-70
2022/02/02 01:03:31;;;;;;;4.10;3.42;;;;;;;5.83;71.76;94902.44;5050562;28;20108;-69
2022/02/02 01:06:02;;;;;;;2.42;1.58;;;;;;;5.28;72.61;94920.34;5050028;28;20516;-70
2022/02/02 01:11:13;;;;;;;3.75;2.83;;;;;;;5.95;71.41;94942.50;5051623;28;20031;-70
2022/02/02 01:21:01;;;;;;;3.35;2.35;;;;;;;6.07;70.94;94931.56;5053963;28;20071;-70
2022/02/02 01:28:40;;;;;;;2.47;1.50;;;;;;;6.37;69.23;94941.00;5054575;28;20063;-70
2022/02/02 01:31:06;;;;;;;2.22;1.90;;;;;;;6.01;69.79;94930.81;5035351;28;20469;-70
2022/02/02 01:33:32;;;;;;;1.77;1.35;;;;;;;6.07;69.46;94931.56;5036339;28;20029;-70
2022/02/02 01:35:59;;;;;;;1.92;1.30;;;;;;;6.12;70.16;94944.69;5053941;28;20739;-68
2022/02/02 01:38:27;;;;;;;1.33;1.10;;;;;;;5.88;70.54;94926.94;5035807;28;20065;-68
2022/02/02 01:40:58;;;;;;;0.80;0.80;;;;;;;5.84;70.35;94943.63;5035813;28;20029;-70
2022/02/02 01:43:29;;;;;;;0.47;0.47;;;;;;;5.69;70.54;94912.88;5054115;28;20384;-70
2022/02/02 01:46:00;;;;;;;2.03;0.80;;;;;;;6.30;68.82;94924.72;5054405;28;20062;-70
2022/02/02 01:53:50;;;;;;;1.08;1.08;;;;;;;6.90;66.51;94891.41;5054091;28;20377;-70
2022/02/02 01:56:17;;;;;;;1.00;0.90;;;;;;;6.26;67.75;94903.34;5054066;28;20366;-70
2022/02/02 02:01:12;;;;;;;1.70;1.08;;;;;;;6.85;66.12;94866.91;5053522;28;20176;-70
2022/02/02 02:03:38;;;;;;;0.80;0.75;;;;;;;6.50;67.24;94875.06;5053644;28;20044;-71
2022/02/02 02:06:05;;;;;;;1.10;1.10;;;;;;;6.94;65.87;94875.78;5040530;28;20461;-71
2022/02/02 02:08:30;;;;;;;0.55;0.55;;;;;;;6.12;69.76;94902.44;5036060;28;20544;-71
2022/02/02 02:10:57;;;;;;;0.90;0.85;;;;;;;6.61;67.22;94907.41;5035971;28;20021;-70
2022/02/02 02:16:14;;;;;;;2.27;1.37;;;;;;;6.28;66.91;94882.72;5053666;28;20045;-68
2022/02/02 02:18:40;;;;;;;1.52;0.80;;;;;;;6.63;67.27;94868.28;5053449;28;20095;-69
2022/02/02 02:21:10;;;;;;;2.58;1.15;;;;;;;6.10;68.74;94871.06;5039815;28;20145;-68
2022/02/02 02:23:36;;;;;;;1.75;0.90;;;;;;;6.35;66.98;94879.75;5034866;28;20435;-68
2022/02/02 02:26:01;;;;;;;1.10;0.73;;;;;;;6.28;67.82;94887.22;5035836;28;20021;-69
2022/02/02 02:31:06;;;;;;;2.17;1.00;;;;;;;6.12;67.91;94871.53;5053406;28;20021;-68
2022/02/02 02:34:02;;;;;;;1.10;0.85;;;;;;;6.07;68.99;94861.03;5053481;28;20028;-68
2022/02/02 02:58:10;;;;;;;4.57;1.40;;;;;;;6.73;67.15;94907.00;5052709;28;20570;-71
2022/02/02 03:57:36;;;;;;;0.70;0.70;;;;;;;5.88;68.25;94878.63;5050651;28;20013;-71
2022/02/02 04:05:38;;;;;;;3.10;0.90;;;;;;;5.80;68.56;94887.97;5051467;28;20095;-71
2022/02/02 04:08:24;;;;;;;4.65;1.65;;;;;;;6.07;69.04;94929.69;5051570;28;20040;-71
2022/02/02 04:10:49;;;;;;;4.00;1.27;;;;;;;5.95;68.55;94921.38;5033453;28;20524;-71
2022/02/02 04:13:34;;;;;;;6.20;1.90;;;;;;;6.40;67.50;94935.16;5033564;28;20116;-71
2022/02/02 04:52:29;;;;;;;1.30;0.70;;;;;;;5.37;71.07;94882.53;4975780;28;20035;-69
2022/02/02 04:58:05;;;;;;;5.43;1.27;;;;;;;5.47;71.10;94881.66;5050910;28;20570;-69
2022/02/02 05:05:47;;;;;;;5.68;1.30;;;;;;;6.20;68.93;94899.97;5050806;28;20470;-69
2022/02/02 05:52:51;;;;;;;1.65;1.00;;;;;;;6.51;67.54;94939.25;5049805;28;20595;-69
2022/02/02 05:55:16;;;;;;;2.60;1.40;;;;;;;6.00;68.57;94942.44;5049964;28;20028;-69
2022/02/02 05:57:46;;;;;;;3.60;1.42;;;;;;;6.48;67.50;94969.66;5051053;28;20025;-69
2022/02/02 06:00:12;;;;;;;1.98;1.17;;;;;;;6.42;67.16;94960.22;5053287;28;20033;-69
2022/02/02 06:02:39;;;;;;;3.97;1.88;;;;;;;7.14;65.83;94954.81;5053725;28;20108;-69
2022/02/02 06:05:07;;;;;;;2.22;1.80;;;;;;;6.63;67.19;94984.56;5053527;28;20380;-69
2022/02/02 06:07:38;;;;;;;4.32;2.15;;;;;;;6.71;67.33;94989.22;5039366;28;20048;-69
2022/02/02 06:10:06;;;;;;;3.47;1.95;;;;;;;7.17;65.97;95006.38;5053565;28;20017;-69
2022/02/02 06:12:32;;;;;;;4.50;2.30;;;;;;;7.08;65.87;95008.09;5053879;28;20469;-69
2022/02/02 06:14:59;;;;;;;4.60;3.17;;;;;;;7.17;65.96;94977.28;5054029;28;20029;-69
2022/02/02 06:17:28;;;;;;;8.40;3.20;;;;;;;7.46;65.64;95000.94;5053881;28;20449;-70
2022/02/02 06:19:53;;;;;;;4.57;2.97;;;;;;;7.23;65.09;94971.63;5035521;28;20040;-69
2022/02/02 06:22:21;;;;;;;7.00;3.15;;;;;;;7.38;65.85;95005.03;5052718;28;20029;-69
2022/02/02 06:24:48;;;;;;;3.67;2.35;;;;;;;6.82;65.71;94952.09;5053236;28;20017;-69
2022/02/02 06:27:26;;;;;;;7.32;3.67;;;;;;;7.20;65.55;95016.38;5053147;28;20047;-70
2022/02/02 06:30:05;;;;;;;8.95;2.97;;;;;;;6.49;67.23;94979.16;5052607;28;20195;-69
2022/02/02 06:32:52;;;;;;;8.23;2.90;;;;;;;7.14;67.00;95031.53;5053380;28;20032;-69
2022/02/02 06:35:19;;;;;;;9.55;3.20;;;;;;;6.73;67.50;95021.44;5053290;28;20385;-69
2022/02/02 06:37:46;;;;;;;7.30;2.45;;;;;;;6.45;68.14;95009.88;5037576;28;20032;-71
2022/02/02 06:40:13;;;;;;;8.70;2.90;;;;;;;6.87;68.68;95063.06;5052471;28;20033;-69
2022/02/02 06:42:39;;;;;;;11.65;3.08;;;;;;;6.53;69.21;95071.09;5053196;28;20091;-70
2022/02/02 06:45:06;;;;;;;10.43;3.25;;;;;;;6.69;68.56;95098.94;5053131;28;20055;-70
2022/02/02 06:47:33;;;;;;;10.68;2.90;;;;;;;6.77;68.29;95099.13;5052469;28;20113;-70
2022/02/02 06:50:10;;;;;;;9.10;3.03;;;;;;;6.69;67.96;95080.44;5052572;28;20025;-70
2022/02/02 06:52:47;;;;;;;11.80;3.63;;;;;;;7.06;66.24;95065.75;5052009;28;20063;-71
2022/02/02 06:55:27;;;;;;;13.75;3.30;;;;;;;6.78;66.75;95118.41;5052397;28;20059;-71
2022/02/02 06:58:12;;;;;;;16.08;3.30;;;;;;;6.46;67.14;95085.41;5052310;28;20083;-73
2022/02/02 07:08:58;;;;;;;13.82;2.85;;;;;;;6.56;64.13;95060.75;5052045;28;20036;-72
2022/02/02 07:11:59;;;;;;;6.70;2.17;;;;;;;6.72;64.17;95114.25;5034461;28;20033;-68
2022/02/02 07:14:37;;;;;;;12.18;3.42;;;;;;;6.30;63.94;95064.72;5051868;28;20036;-73
2022/02/02 07:17:55;;;;;;;;;;;;;;;6.72;63.52;95108.97;5032734;28;20382;-72
2022/02/02 07:20:17;;;;;;;15.93;3.20;;;;;;;6.28;62.37;95053.63;5043231;28;19935;-70
2022/02/02 07:28:26;;;;;;;12.32;2.15;;;;;;;6.96;62.23;95103.66;5052301;28;20117;-70
2022/02/02 07:30:57;;;;;;;11.85;2.15;;;;;;;6.64;63.98;95099.78;5049307;28;20072;-69
2022/02/02 07:33:33;;;;;;;9.98;2.05;;;;;;;6.79;64.23;95088.25;5052044;28;20399;-69
2022/02/02 07:38:38;;;;;;;6.50;1.60;;;;;;;6.69;65.54;95083.84;5051266;28;20363;-69
2022/02/02 07:41:06;;;;;;;7.07;1.92;;;;;;;6.65;65.73;95072.25;5052056;28;20032;-70
2022/02/02 07:43:37;;;;;;;6.85;1.88;;;;;;;6.80;65.25;95094.34;5033677;28;20021;-69
2022/02/02 07:46:05;;;;;;;7.13;1.77;;;;;;;6.90;65.75;95087.06;5033790;28;20060;-69
2022/02/02 07:48:38;;;;;;;9.77;2.20;;;;;;;7.35;64.08;95100.84;5033619;28;20392;-70
2022/02/02 07:51:04;;;;;;;5.57;1.65;;;;;;;6.81;65.43;95091.44;5051724;28;20358;-70
2022/02/02 07:53:38;;;;;;;5.82;1.98;;;;;;;7.37;63.97;95095.25;5050950;28;20470;-70
2022/02/02 07:56:12;;;;;;;6.60;1.48;;;;;;;6.67;66.38;95069.38;5051501;28;20029;-70
2022/02/02 07:58:44;;;;;;;6.82;2.40;;;;;;;6.62;67.28;95096.63;5033441;28;20057;-69
2022/02/02 08:01:12;;;;;;;8.60;2.13;;;;;;;6.86;66.55;95103.78;5033289;28;20025;-70
2022/02/02 08:03:40;;;;;;;10.35;2.33;;;;;;;7.02;66.45;95110.50;5051482;28;20032;-69
2022/02/02 08:06:09;;;;;;;10.10;2.70;;;;;;;7.37;65.03;95104.00;5033765;28;20104;-69
2022/02/02 08:08:36;;;;;;;9.43;2.28;;;;;;;6.45;66.06;95088.34;5040744;28;20056;-70
2022/02/02 08:11:09;;;;;;;8.13;1.98;;;;;;;6.22;66.71;95084.56;5051330;28;20685;-69
2022/02/02 08:13:45;;;;;;;13.77;3.60;;;;;;;6.37;66.52;95113.50;5051445;28;20029;-70
2022/02/02 08:16:14;;;;;;;13.55;2.90;;;;;;;6.89;65.04;95132.31;5033143;28;20028;-69
2022/02/02 08:18:44;;;;;;;8.63;2.80;;;;;;;6.40;65.71;95134.09;5032785;28;20021;-70
2022/02/02 08:21:09;;;;;;;15.20;2.65;;;;;;;6.38;65.09;95112.44;5050050;28;20111;-69
2022/02/02 08:23:36;;;;;;;7.88;2.33;;;;;;;6.50;63.93;95139.28;5050599;28;20392;-70
2022/02/02 08:26:05;;;;;;;9.70;2.03;;;;;;;6.60;63.96;95171.97;5033452;28;20393;-70
2022/02/02 08:28:31;;;;;;;10.65;2.40;;;;;;;6.69;63.12;95176.38;5033365;28;20033;-69
2022/02/02 08:30:56;;;;;;;15.80;2.63;;;;;;;6.67;62.10;95151.31;5051340;28;20028;-69
2022/02/02 08:33:28;;;;;;;6.38;2.20;;;;;;;6.42;63.89;95176.88;5051290;28;20087;-69
2022/02/02 08:35:55;;;;;;;11.85;3.08;;;;;;;6.80;62.26;95179.72;5033076;28;20029;-70
2022/02/02 08:38:52;;;;;;;10.55;2.78;;;;;;;6.75;61.77;95177.13;5050001;28;20060;-70
2022/02/02 08:41:12;;;;;;;7.95;2.03;;;;;;;6.88;61.34;95189.69;5049762;28;20098;-71
2022/02/02 08:43:56;;;;;;;12.45;3.17;;;;;;;7.22;60.69;95200.22;5051158;28;20487;-71
2022/02/02 08:46:31;;;;;;;15.18;2.67;;;;;;;6.84;60.34;95164.09;5050682;28;20057;-68
2022/02/02 08:48:58;;;;;;;12.38;3.08;;;;;;;7.26;59.60;95187.97;5032754;28;20432;-77
2022/02/02 08:51:28;;;;;;;13.68;3.30;;;;;;;7.68;58.99;95206.84;5032846;28;20499;-68
2022/02/02 08:54:06;;;;;;;12.68;2.78;;;;;;;7.99;57.20;95194.78;5038484;28;20028;-69
2022/02/02 08:59:17;;;;;;;7.97;2.58;;;;;;;7.77;58.05;95187.38;5050882;28;20425;-69
2022/02/02 09:01:43;;;;;;;5.88;1.40;;;;;;;7.45;59.30;95179.31;5050550;28;20074;-68
2022/02/02 09:06:52;;;;;;;8.05;2.53;;;;;;;8.35;57.93;95199.59;5050279;28;20044;-70
2022/02/02 09:09:21;;;;;;;14.85;2.25;;;;;;;7.56;58.94;95191.34;5049794;28;20021;-70
2022/02/02 09:20:08;;;;;;;9.70;2.40;;;;;;;7.43;59.50;95113.44;5049997;28;20090;-69
2022/02/02 09:25:15;;;;;;;10.60;2.60;;;;;;;8.13;59.37;95204.66;5050307;28;20017;-68
2022/02/02 09:33:33;;;;;;;12.50;1.67;;;;;;;7.69;61.96;95219.00;5052637;28;20102;-71
2022/02/02 09:35:59;;;;;;;6.18;1.80;;;;;;;7.34;63.24;95214.91;5054308;28;20082;-72
2022/02/02 09:38:25;;;;;;;9.15;1.98;;;;;;;7.49;62.07;95226.13;5053347;28;20037;-70
2022/02/02 09:41:19;;;;;;;17.80;3.05;;;;;;;8.05;61.22;95240.53;5035904;28;20041;-72
2022/02/02 09:43:45;;;;;;;6.82;2.08;;;;;;;7.61;61.85;95201.88;5054296;28;20090;-72
2022/02/02 09:46:15;;;;;;;7.93;1.95;;;;;;;7.29;62.83;95205.94;5036471;28;20029;-71
2022/02/02 09:48:47;;;;;;;5.63;1.73;;;;;;;7.46;62.61;95221.38;5054030;28;20048;-71
2022/02/02 09:51:18;;;;;;;;;;;;;;;8.20;61.27;95258.09;5036466;28;20677;-75
2022/02/02 09:53:54;;;;;;;7.97;2.27;;;;;;;7.81;60.96;95256.47;5053493;28;20426;-74
2022/02/02 09:56:42;;;;;;;11.02;2.63;;;;;;;7.57;61.85;95240.56;5036274;28;20392;-71
2022/02/02 10:05:00;;;;;;;13.50;2.85;;;;;;;7.60;63.30;95281.59;5054329;28;20090;-74
2022/02/02 10:15:50;;;;;;;6.32;2.03;;;;;;;7.77;63.00;95293.28;5054211;28;20083;-74
2022/02/02 10:18:21;;;;;;;6.47;1.88;;;;;;;7.72;63.02;95297.88;5053885;28;20017;-73
2022/02/02 10:20:54;;;;;;;16.17;2.75;;;;;;;7.29;63.20;95261.50;5035661;28;20079;-72
2022/02/02 10:23:24;;;;;;;10.38;3.15;;;;;;;7.43;62.58;95276.75;5037515;28;20107;-74
2022/02/02 10:25:57;;;;;;;5.72;1.67;;;;;;;7.33;62.40;95303.31;5035642;28;20021;-73
2022/02/02 10:28:23;;;;;;;21.65;3.72;;;;;;;8.24;60.75;95296.19;5053218;28;20108;-74
2022/02/02 10:30:55;;;;;;;15.23;3.47;;;;;;;7.66;61.28;95270.66;5035388;28;20033;-73
2022/02/02 10:33:23;;;;;;;13.02;2.92;;;;;;;8.53;59.48;95301.41;5053719;28;20063;-74
2022/02/02 10:35:52;;;;;;;12.60;2.17;;;;;;;7.95;60.36;95261.88;5053390;28;20025;-73
2022/02/02 10:38:27;;;;;;;10.77;2.65;;;;;;;7.82;60.50;95282.66;5053084;28;20029;-74
2022/02/02 10:43:35;;;;;;;10.20;1.70;;;;;;;7.92;61.18;95283.59;5052767;28;20052;-73
2022/02/02 10:46:27;;;;;;;12.93;2.50;;;;;;;8.40;59.31;95296.84;5052987;28;20066;-73
2022/02/02 10:49:09;;;;;;;16.95;3.00;;;;;;;8.56;58.66;95303.50;5052626;28;20021;-73
2022/02/02 10:56:59;;;;;;;14.10;4.20;;;;;;;8.28;58.79;95318.41;5052882;28;20017;-73
2022/02/02 11:07:49;;;;;;;13.43;3.53;;;;;;;8.14;62.06;95338.72;5052790;28;20032;-71
2022/02/02 11:10:16;;;;;;;22.48;3.88;;;;;;;7.61;63.65;95288.47;5052308;28;20025;-72
2022/02/02 11:12:42;;;;;;;17.90;4.13;;;;;;;7.82;62.89;95319.72;5035282;28;20033;-70
2022/02/02 11:15:18;;;;;;;24.38;4.18;;;;;;;8.30;61.51;95335.63;5053194;28;20161;-72
2022/02/02 11:18:06;;;;;;;20.10;3.85;;;;;;;7.94;61.03;95292.06;5052597;28;20021;-70
2022/02/02 11:20:32;;;;;;;10.02;2.83;;;;;;;7.68;61.05;95353.25;5034276;28;20064;-70
2022/02/02 11:22:58;;;;;;;27.33;4.28;;;;;;;7.91;59.83;95292.63;5034563;28;20474;-73
2022/02/02 11:25:23;;;;;;;21.27;3.58;;;;;;;8.11;60.35;95328.69;5034137;28;20044;-69
2022/02/02 11:27:55;;;;;;;16.00;3.40;;;;;;;8.20;59.35;95313.75;5034542;28;20048;-70
2022/02/02 11:30:23;;;;;;;10.45;3.00;;;;;;;8.68;58.98;95340.19;5051507;28;20033;-69
2022/02/02 11:33:18;;;;;;;16.10;3.65;;;;;;;8.58;58.02;95322.56;5051848;28;20044;-69
2022/02/02 11:35:52;;;;;;;15.98;3.30;;;;;;;8.89;57.39;95330.84;5051840;28;20131;-69
2022/02/02 11:38:25;;;;;;;14.95;3.45;;;;;;;8.59;58.15;95351.41;5038320;28;20112;-69
2022/02/02 11:41:03;;;;;;;16.02;3.53;;;;;;;9.29;55.99;95329.44;5051874;28;20027;-69
2022/02/02 11:43:48;;;;;;;14.07;3.60;;;;;;;9.00;57.15;95332.28;5051961;28;20020;-69
2022/02/02 11:49:55;;;;;;;19.63;3.63;;;;;;;9.72;54.29;95300.00;5051608;28;20086;-70
2022/02/02 11:52:34;;;;;;;7.80;2.90;;;;;;;9.19;55.92;95321.63;5034094;28;20025;-76
2022/02/02 11:55:00;;;;;;;24.30;3.67;;;;;;;9.10;56.93;95315.41;5044918;28;20013;-72
2022/02/02 11:57:34;;;;;;;18.00;4.00;;;;;;;9.40;56.44;95308.81;5051732;28;20021;-71
2022/02/02 12:00:19;;;;;;;13.20;3.05;;;;;;;8.42;58.66;95314.00;5033432;28;20055;-71
2022/02/02 12:49:22;;;;;;;8.52;2.10;;;;;;;9.27;54.21;95326.31;5051116;28;20029;-70
2022/02/02 12:57:26;;;;;;;9.50;2.30;;;;;;;8.72;55.99;95334.03;5050702;28;20064;-70
2022/02/02 13:00:07;;;;;;;7.28;1.60;;;;;;;8.65;55.90;95359.31;5032515;28;20025;-70
2022/02/02 13:02:37;;;;;;;11.23;2.78;;;;;;;8.46;56.72;95338.09;5050655;28;20538;-69
2022/02/02 13:05:04;;;;;;;21.27;2.97;;;;;;;8.45;56.47;95339.97;5050884;28;20021;-70
2022/02/02 13:07:31;;;;;;;20.48;3.60;;;;;;;8.72;55.68;95355.25;5032781;28;20024;-70
2022/02/02 13:09:58;;;;;;;10.15;2.28;;;;;;;8.52;56.78;95350.22;5036724;28;20521;-70
2022/02/02 13:12:45;;;;;;;13.98;3.30;;;;;;;8.65;56.31;95328.31;5050239;28;20037;-71
2022/02/02 13:17:58;;;;;;;19.05;3.88;;;;;;;9.48;55.16;95361.25;5050632;28;20025;-70
2022/02/02 13:23:57;;;;;;;10.00;2.65;;;;;;;8.48;56.96;95365.88;5039647;28;20045;-72
2022/02/02 13:29:36;;;;;;;9.23;3.72;;;;;;;8.54;56.89;95364.75;5045999;28;20737;-70
2022/02/02 13:42:53;;;;;;;13.55;3.58;;;;;;;9.55;55.43;95379.47;5049854;28;20116;-71
2022/02/02 13:51:02;;;;;;;12.90;3.35;;;;;;;8.78;57.14;95398.41;5049872;28;20446;-71
2022/02/02 14:01:49;;;;;;;17.55;3.10;;;;;;;9.37;55.18;95423.56;5049951;28;20167;-72
2022/02/02 14:09:17;;;;;;;13.73;3.85;;;;;;;9.25;57.13;95444.44;5049196;28;20226;-70
2022/02/02 14:33:32;;;;;;;20.27;5.68;;;;;;;7.52;67.23;95482.31;5028125;28;20037;-70
2022/02/02 14:36:01;;;;;;;21.38;4.13;;;;;;;7.10;67.41;95503.19;5052897;28;20033;-70
2022/02/02 14:38:34;;;;;;;15.73;3.65;;;;;;;7.31;66.02;95512.59;5052454;28;20672;-69
2022/02/02 14:41:09;;;;;;;18.02;4.68;;;;;;;7.95;63.95;95518.78;5052609;28;20116;-72
2022/02/02 14:43:41;;;;;;;23.30;4.32;;;;;;;8.02;63.54;95513.94;5035241;28;20465;-71
2022/02/02 14:46:10;;;;;;;26.25;4.93;;;;;;;8.18;62.65;95496.06;5053013;28;20029;-69
2022/02/02 14:48:43;;;;;;;23.98;5.05;;;;;;;8.15;63.94;95515.19;5052604;28;20045;-70
2022/02/02 14:54:12;;;;;;;18.50;4.13;;;;;;;7.81;62.94;95516.75;5052260;28;20167;-69
2022/02/02 15:24:53;;;;;;;14.02;2.83;;;;;;;8.30;56.98;95571.50;5036011;28;20089;-71
2022/02/02 15:29:27;;;;;;;8.25;2.97;;;;;;;9.00;54.51;95568.41;5052298;28;20072;-71
2022/02/02 15:31:52;;;;;;;11.40;2.90;;;;;;;8.67;55.43;95569.31;5052111;28;20021;-71
2022/02/02 15:34:26;;;;;;;15.60;3.05;;;;;;;8.99;53.86;95572.16;5051954;28;20074;-71
2022/02/02 15:39:22;;;;;;;12.40;2.70;;;;;;;8.83;53.66;95587.44;5051172;28;20154;-71
2022/02/02 16:05:42;;;;;;;11.55;2.13;;;;;;;8.15;52.36;95618.53;5051220;28;20055;-71
2022/02/02 16:08:09;;;;;;;10.55;2.60;;;;;;;8.68;51.16;95618.63;5050833;28;20025;-71
2022/02/02 16:11:25;;;;;;;10.48;2.92;;;;;;;9.10;50.48;95641.81;5049538;28;20162;-71
2022/02/02 16:13:41;;;;;;;11.73;2.65;;;;;;;8.39;51.42;95637.16;5042709;28;20072;-70
2022/02/02 16:19:02;;;;;;;13.70;3.50;;;;;;;8.73;51.03;95637.94;5050316;28;20082;-71
2022/02/02 16:37:39;;;;;;;9.13;3.17;;;;;;;7.84;53.81;95652.38;5050680;28;20039;-71
2022/02/02 16:40:08;;;;;;;10.02;2.67;;;;;;;8.20;52.72;95650.28;5049668;28;20102;-73
2022/02/02 16:45:20;;;;;;;15.15;2.50;;;;;;;7.53;54.93;95655.94;5050886;28;20104;-73
2022/02/02 16:47:45;;;;;;;10.75;2.50;;;;;;;8.00;53.74;95654.66;5032919;28;20482;-70
2022/02/02 16:50:17;;;;;;;9.65;2.72;;;;;;;8.09;53.82;95673.41;5050053;28;20035;-69
2022/02/02 16:52:45;;;;;;;12.20;3.47;;;;;;;8.02;54.30;95672.91;5050108;28;20025;-68
2022/02/02 16:55:18;;;;;;;8.73;3.17;;;;;;;7.91;53.12;95643.03;5049768;28;20020;-67
2022/02/02 16:58:17;;;;;;;11.73;2.72;;;;;;;7.38;54.21;95637.50;5049799;28;20116;-69
2022/02/02 17:30:43;;;;;;;10.30;4.25;;;;;;;8.18;56.05;95695.59;5049321;28;20433;-68
2022/02/02 17:33:18;;;;;;;13.57;3.75;;;;;;;7.73;57.69;95702.72;5050084;28;20485;-69
2022/02/02 17:38:44;;;;;;;13.05;3.30;;;;;;;7.66;58.14;95712.03;5049505;28;20492;-67
2022/02/02 17:41:34;;;;;;;15.88;3.63;;;;;;;7.56;58.24;95683.72;5049082;28;20691;-69
2022/02/02 18:21:18;;;;;;;11.23;3.67;;;;;;;8.07;58.53;95761.09;5053278;28;20025;-71
2022/02/02 18:31:32;;;;;;;12.30;3.47;;;;;;;8.08;58.39;95775.94;5053019;28;20047;-71
2022/02/02 20:12:25;;;;;;;49.13;16.15;;;;;;;7.89;66.87;95903.97;5051206;28;20484;-71
2022/02/02 20:14:50;;;;;;;32.75;13.18;;;;;;;7.10;67.84;95887.56;5033444;28;20517;-71
2022/02/02 20:17:18;;;;;;;27.35;11.60;;;;;;;7.16;68.57;95878.56;5032694;28;20116;-72
2022/02/02 20:19:49;;;;;;;31.08;13.02;;;;;;;8.00;66.47;95908.19;5051158;28;20029;-72
2022/02/02 20:22:17;;;;;;;41.30;13.15;;;;;;;8.39;64.87;95889.00;5052022;28;20029;-73
2022/02/02 20:24:51;;;;;;;37.03;14.95;;;;;;;8.90;64.40;95904.66;5051672;28;20393;-72
2022/02/02 20:27:17;;;;;;;34.95;14.85;;;;;;;8.71;64.40;95907.19;5048103;28;20041;-73
2022/02/02 20:29:42;;;;;;;43.97;15.20;;;;;;;8.89;63.28;95852.69;5051074;28;20105;-70
2022/02/02 20:32:08;;;;;;;38.58;13.23;;;;;;;8.99;63.47;95890.56;5051667;28;20025;-71
2022/02/02 20:34:34;;;;;;;33.88;13.13;;;;;;;9.02;63.26;95902.50;5052497;28;20078;-75
2022/02/02 20:36:59;;;;;;;35.42;12.25;;;;;;;8.81;63.56;95886.69;5033812;28;20045;-73
2022/02/02 20:39:47;;;;;;;27.83;11.90;;;;;;;8.40;63.78;95903.88;5033357;28;20461;-70
2022/02/02 20:42:14;;;;;;;34.05;13.27;;;;;;;8.27;64.18;95876.81;5036849;28;20102;-70
2022/02/02 20:44:57;;;;;;;27.45;13.27;;;;;;;8.44;63.62;95862.47;5050700;28;20013;-69
2022/02/02 21:06:25;;;;;;;29.55;11.18;;;;;;;8.44;65.64;95949.97;5050866;28;20032;-74
2022/02/02 21:11:39;;;;;;;25.83;11.65;;;;;;;8.10;64.59;95886.16;5049952;28;20413;-73
2022/02/02 21:14:05;;;;;;;25.20;12.23;;;;;;;8.81;63.60;95947.72;5033340;28;20032;-74
2022/02/02 21:16:36;;;;;;;26.00;11.95;;;;;;;8.55;63.38;95911.75;5032859;28;20032;-75
2022/02/02 21:19:05;;;;;;;36.80;13.38;;;;;;;8.97;62.69;95886.59;5032139;28;20378;-71
2022/02/02 21:21:38;;;;;;;25.48;11.73;;;;;;;8.69;63.92;95917.25;5050197;28;20484;-72
2022/02/02 21:24:31;;;;;;;;;;;;;;;9.28;63.07;95957.00;5050905;28;20055;-75
2022/02/02 21:27:17;;;;;;;23.02;11.18;;;;;;;8.79;63.00;95922.50;5049600;28;19920;-72
2022/02/02 21:29:43;;;;;;;27.83;11.02;;;;;;;7.81;64.78;95897.34;5054258;28;20078;-72
2022/02/02 21:32:09;;;;;;;25.80;11.23;;;;;;;8.09;64.95;95925.13;5035897;28;20433;-74
2022/02/02 21:34:36;;;;;;;25.65;10.82;;;;;;;8.10;64.20;95899.41;5054699;28;20025;-72
2022/02/02 21:37:05;;;;;;;25.23;11.00;;;;;;;7.91;65.61;95976.00;5036581;28;20485;-73
2022/02/02 21:39:33;;;;;;;25.80;11.38;;;;;;;7.67;66.21;95925.44;5036729;28;20025;-74
2022/02/02 21:41:58;;;;;;;21.65;10.20;;;;;;;7.42;68.25;95974.69;5037756;28;20478;-73
2022/02/02 21:44:24;;;;;;;19.83;9.60;;;;;;;6.74;69.76;95943.03;5036380;28;20115;-73
2022/02/02 21:46:50;;;;;;;26.92;11.50;;;;;;;7.30;67.43;95900.00;5036504;28;20033;-74
2022/02/02 21:49:19;;;;;;;27.85;11.70;;;;;;;7.79;65.59;95902.13;5054221;28;20056;-73
2022/02/02 21:52:07;;;;;;;21.67;10.18;;;;;;;7.55;67.36;95937.09;5054649;28;20104;-75
2022/02/02 21:54:33;;;;;;;23.02;10.40;;;;;;;7.51;67.38;95941.31;5054846;28;20025;-75
2022/02/02 21:56:59;;;;;;;24.92;11.02;;;;;;;7.68;65.84;95916.44;5053787;28;20592;-74
2022/02/02 21:59:27;;;;;;;22.88;10.18;;;;;;;7.34;68.18;95946.06;5036026;28;20025;-75
2022/02/02 22:01:53;;;;;;;23.02;10.23;;;;;;;7.36;67.71;95922.78;5036251;28;20029;-74
2022/02/02 22:04:18;;;;;;;23.20;10.85;;;;;;;7.54;67.14;95961.19;5054178;28;20381;-72
2022/02/02 22:06:44;;;;;;;24.58;12.50;;;;;;;8.10;65.55;95941.81;5053839;28;20057;-73
2022/02/02 22:09:09;;;;;;;25.25;11.02;;;;;;;8.25;64.30;95963.78;5036084;28;20476;-73
2022/02/02 22:11:34;;;;;;;25.65;11.77;;;;;;;8.07;65.17;95933.31;5035964;28;20087;-73
2022/02/02 22:14:09;;;;;;;25.35;11.15;;;;;;;8.28;63.53;95938.56;5035966;28;20388;-74
2022/02/02 22:16:36;;;;;;;31.02;11.52;;;;;;;8.08;63.17;95924.31;5036214;28;20021;-72
2022/02/02 22:19:02;;;;;;;24.95;11.25;;;;;;;8.13;63.98;95965.09;5035503;28;20021;-75
2022/02/02 22:21:28;;;;;;;26.92;10.20;;;;;;;8.26;62.65;95927.47;5035746;28;20108;-76
2022/02/02 22:23:53;;;;;;;30.70;10.93;;;;;;;8.21;62.54;95912.38;5054185;28;20107;-76
2022/02/02 22:26:20;;;;;;;24.80;11.00;;;;;;;8.61;62.56;95963.72;5035789;28;20032;-75
2022/02/02 22:28:46;;;;;;;29.42;11.15;;;;;;;8.39;61.98;95944.66;5035843;28;20629;-76
2022/02/02 22:31:12;;;;;;;36.13;12.20;;;;;;;8.92;62.24;95974.19;5036065;28;20028;-76
2022/02/02 22:33:38;;;;;;;32.55;13.00;;;;;;;8.87;61.93;95937.06;5036078;28;20025;-74
2022/02/02 22:36:04;;;;;;;28.55;11.75;;;;;;;9.11;61.75;95972.50;5035868;28;20614;-75
2022/02/02 22:38:30;;;;;;;36.17;11.73;;;;;;;8.80;61.46;95977.97;5035244;28;20120;-74
2022/02/02 22:40:58;;;;;;;27.35;12.48;;;;;;;8.82;62.00;95967.06;5052509;28;20393;-71
2022/02/02 22:43:24;;;;;;;37.80;14.18;;;;;;;8.88;62.01;95944.75;5037977;28;20204;-75
2022/02/02 22:45:52;;;;;;;27.23;11.75;;;;;;;9.11;61.26;95953.94;5053084;28;20032;-71
2022/02/02 22:48:21;;;;;;;32.88;11.20;;;;;;;8.85;61.52;95924.88;5034991;28;20021;-72
2022/02/02 22:50:47;;;;;;;38.78;11.45;;;;;;;8.73;61.36;95895.22;5034986;28;20029;-71
2022/02/02 22:53:12;;;;;;;24.50;11.15;;;;;;;8.58;61.76;95889.97;5053046;28;20100;-72
2022/02/02 22:55:38;;;;;;;23.50;10.70;;;;;;;9.00;61.41;95939.13;5034604;28;20462;-71
2022/02/02 22:58:04;;;;;;;31.98;11.80;;;;;;;9.19;61.50;95976.44;5052876;28;20028;-72
2022/02/02 23:00:33;;;;;;;16.83;10.20;;;;;;;8.99;61.34;95943.63;5052467;28;20086;-72
2022/02/02 23:03:01;;;;;;;22.98;11.23;;;;;;;8.76;60.81;95928.38;5052812;28;20051;-75
2022/02/02 23:05:52;;;;;;;28.13;11.52;;;;;;;9.04;61.21;95967.50;5035151;28;20035;-74
2022/02/02 23:08:15;;;;;;;25.15;12.20;;;;;;;9.07;61.84;95934.31;5052098;28;20469;-74
2022/02/02 23:10:41;;;;;;;27.25;11.30;;;;;;;9.53;61.55;95966.66;5052177;28;20103;-71